Time;durP1;ratioP1;P1;durP2;ratioP2;P2;SDS_P1;SDS_P2;PMS_P1;PMS_P2;Temp;Humidity;BMP_temperature;BMP_pressure;BME280_temperature;BME280_humidity;BME280_pressure;Samples;Min_cycle;Max_cycle;Signal;HPM_P1;HPM_P2
2023/06/05 00:01:48;;;;;;;15.55;7.15;;;10.50;99.90;;;;;;4998087;28;20054;-73
2023/06/05 00:04:14;;;;;;;14.13;6.75;;;10.40;99.90;;;;;;4948960;28;211789;-74
2023/06/05 00:06:40;;;;;;;13.43;7.45;;;10.40;99.90;;;;;;5004140;28;20511;-74
2023/06/05 00:09:07;;;;;;;16.35;7.03;;;10.30;99.90;;;;;;4931629;28;164841;-74
2023/06/05 00:11:33;;;;;;;14.88;7.40;;;10.30;99.90;;;;;;5016255;28;20041;-73
2023/06/05 00:13:59;;;;;;;11.07;5.85;;;10.20;99.90;;;;;;4960153;28;212010;-73
2023/06/05 00:16:25;;;;;;;11.15;6.13;;;10.30;99.90;;;;;;5022554;28;20414;-73
2023/06/05 00:18:51;;;;;;;13.40;6.15;;;10.30;99.90;;;;;;4965226;28;161067;-74
2023/06/05 00:21:19;;;;;;;13.05;7.07;;;10.30;99.90;;;;;;5008008;28;20046;-74
2023/06/05 00:23:46;;;;;;;14.02;7.03;;;10.20;99.90;;;;;;4956561;28;205782;-74
2023/06/05 00:26:12;;;;;;;15.52;8.07;;;10.20;99.90;;;;;;5011202;28;20050;-74
2023/06/05 00:28:38;;;;;;;12.23;7.10;;;10.20;99.90;;;;;;4938589;28;206711;-73
2023/06/05 00:31:05;;;;;;;14.60;7.50;;;10.20;99.90;;;;;;4989375;28;20051;-75
2023/06/05 00:33:32;;;;;;;11.77;6.18;;;10.30;99.90;;;;;;4945323;28;212782;-74
2023/06/05 00:35:58;;;;;;;12.10;6.35;;;10.20;99.90;;;;;;4990390;28;21765;-74
2023/06/05 00:38:24;;;;;;;17.10;6.85;;;10.30;99.90;;;;;;4919470;28;1080746;-74
2023/06/05 00:40:50;;;;;;;14.85;7.00;;;10.30;99.90;;;;;;5010538;28;20447;-74
2023/06/05 00:43:17;;;;;;;13.35;6.30;;;10.30;99.90;;;;;;4958046;28;217439;-74
2023/06/05 00:45:43;;;;;;;14.85;7.15;;;10.30;99.90;;;;;;5003868;28;20050;-73
2023/06/05 00:48:10;;;;;;;12.10;7.07;;;10.30;99.90;;;;;;4975471;28;210101;-73
2023/06/05 00:50:37;;;;;;;13.73;6.82;;;10.20;99.90;;;;;;5032193;28;20054;-74
2023/06/05 00:53:05;;;;;;;13.85;6.47;;;10.30;99.90;;;;;;4998494;28;206382;-73
2023/06/05 00:55:32;;;;;;;14.02;6.90;;;10.20;99.90;;;;;;4963429;28;69833;-73
2023/06/05 00:58:00;;;;;;;13.13;6.63;;;10.20;99.90;;;;;;5007588;28;20062;-73
2023/06/05 01:00:27;;;;;;;15.98;6.93;;;10.20;99.90;;;;;;4936354;28;100015;-73
2023/06/05 01:02:53;;;;;;;12.32;6.53;;;10.20;99.90;;;;;;4992809;28;20088;-73
2023/06/05 01:05:19;;;;;;;14.73;6.97;;;10.10;99.90;;;;;;4982608;28;215645;-73
2023/06/05 01:07:48;;;;;;;17.40;8.52;;;10.10;99.90;;;;;;5012508;28;20054;-72
2023/06/05 01:10:14;;;;;;;11.57;6.57;;;10.10;99.90;;;;;;4981330;28;208616;-74
2023/06/05 01:13:18;;;;;;;14.50;7.80;;;10.00;99.90;;;;;;4993424;28;20050;-73
2023/06/05 01:15:45;;;;;;;13.93;7.60;;;10.00;99.90;;;;;;4943132;28;220007;-73
2023/06/05 01:18:11;;;;;;;13.98;7.50;;;10.00;99.90;;;;;;4951999;28;208733;-73
2023/06/05 01:20:39;;;;;;;15.98;9.23;;;10.00;99.90;;;;;;5021920;28;20058;-73
2023/06/05 01:23:06;;;;;;;13.63;7.95;;;9.90;99.90;;;;;;4990218;28;220774;-73
2023/06/05 01:25:32;;;;;;;14.00;7.43;;;9.90;99.90;;;;;;4974509;28;249435;-74
2023/06/05 01:28:22;;;;;;;14.48;7.93;;;9.90;99.90;;;;;;4969513;28;20070;-74
2023/06/05 01:31:05;;;;;;;17.45;8.27;;;9.90;99.90;;;;;;4956934;28;20046;-74
2023/06/05 01:33:49;;;;;;;15.88;8.35;;;9.90;99.90;;;;;;5003367;28;85928;-74
2023/06/05 01:36:16;;;;;;;15.70;8.90;;;9.80;99.90;;;;;;5019158;28;20046;-74
2023/06/05 01:38:45;;;;;;;14.68;8.02;;;9.90;99.90;;;;;;4964762;28;206189;-73
2023/06/05 01:41:13;;;;;;;16.38;8.48;;;9.80;99.90;;;;;;4998743;28;20059;-73
2023/06/05 01:43:39;;;;;;;15.27;7.93;;;9.80;99.90;;;;;;4946054;28;205913;-73
2023/06/05 01:46:07;;;;;;;14.38;7.50;;;9.90;99.90;;;;;;5018511;28;20054;-73
2023/06/05 01:48:34;;;;;;;13.88;7.75;;;9.90;99.90;;;;;;4961930;28;208992;-73
2023/06/05 01:51:01;;;;;;;13.57;7.43;;;9.90;99.90;;;;;;4996945;28;20530;-73
2023/06/05 01:53:28;;;;;;;14.23;7.38;;;9.80;99.90;;;;;;4950699;28;31150;-73
2023/06/05 01:55:56;;;;;;;13.07;8.13;;;9.80;99.90;;;;;;5027059;28;20060;-73
2023/06/05 01:58:26;;;;;;;14.88;7.15;;;9.80;99.90;;;;;;4944864;28;210274;-73
2023/06/05 02:00:53;;;;;;;14.02;7.72;;;9.80;99.90;;;;;;5023711;28;20046;-73
2023/06/05 02:03:20;;;;;;;13.77;7.90;;;9.80;99.90;;;;;;4941997;28;209221;-73
2023/06/05 02:05:47;;;;;;;15.35;8.40;;;9.90;99.90;;;;;;5024385;28;20058;-73
2023/06/05 02:08:17;;;;;;;15.45;8.23;;;9.90;99.90;;;;;;4958528;28;211745;-73
2023/06/05 02:10:44;;;;;;;12.85;7.05;;;9.90;99.90;;;;;;5003493;28;20054;-73
2023/06/05 02:13:10;;;;;;;18.23;9.13;;;9.90;99.90;;;;;;4947169;28;229760;-73
2023/06/05 02:15:37;;;;;;;15.40;8.25;;;10.00;99.90;;;;;;5029550;28;20061;-73
2023/06/05 02:18:04;;;;;;;15.18;8.77;;;10.00;99.90;;;;;;5003440;28;210759;-73
2023/06/05 02:20:32;;;;;;;15.25;8.48;;;10.00;99.90;;;;;;4980624;28;67361;-73
2023/06/05 02:22:58;;;;;;;16.70;8.45;;;10.00;99.90;;;;;;5010877;28;20057;-73
2023/06/05 02:25:28;;;;;;;15.35;8.45;;;10.00;99.90;;;;;;4957052;28;218693;-73
2023/06/05 02:27:55;;;;;;;14.98;8.85;;;10.10;99.90;;;;;;4992905;28;20703;-73
2023/06/05 02:30:22;;;;;;;14.85;8.70;;;10.10;99.90;;;;;;4970800;28;209551;-73
2023/06/05 02:32:56;;;;;;;15.80;9.23;;;10.10;99.90;;;;;;4994465;28;20582;-73
2023/06/05 02:35:23;;;;;;;13.73;8.10;;;10.20;99.90;;;;;;4985825;28;92305;-73
2023/06/05 02:37:50;;;;;;;14.63;7.90;;;10.10;99.90;;;;;;5011224;28;20069;-73
2023/06/05 02:40:16;;;;;;;17.48;9.70;;;10.20;99.90;;;;;;4961083;28;208324;-72
2023/06/05 02:42:42;;;;;;;14.93;8.75;;;10.20;99.90;;;;;;5009536;28;20054;-73
2023/06/05 02:45:08;;;;;;;16.17;8.10;;;10.20;99.90;;;;;;4975555;28;154324;-74
2023/06/05 02:47:35;;;;;;;16.02;7.75;;;10.20;99.90;;;;;;5009477;28;20066;-73
2023/06/05 02:50:02;;;;;;;15.23;8.07;;;10.20;99.90;;;;;;4970801;28;212224;-73
2023/06/05 02:52:31;;;;;;;15.15;8.55;;;10.20;99.90;;;;;;4992326;28;20070;-73
2023/06/05 02:54:57;;;;;;;16.00;7.95;;;10.20;99.90;;;;;;4976020;28;208419;-73
2023/06/05 02:57:26;;;;;;;14.65;8.20;;;10.20;99.90;;;;;;5013006;28;20046;-73
2023/06/05 02:59:52;;;;;;;16.20;9.00;;;10.20;99.90;;;;;;4963504;28;210721;-74
2023/06/05 03:02:18;;;;;;;12.23;7.47;;;10.20;99.90;;;;;;4996445;28;20061;-74
2023/06/05 03:04:44;;;;;;;15.68;8.43;;;10.20;99.90;;;;;;4981235;28;208859;-73
2023/06/05 03:07:13;;;;;;;15.93;9.48;;;10.20;99.90;;;;;;5013527;28;20072;-73
2023/06/05 03:09:39;;;;;;;13.65;9.38;;;10.20;99.90;;;;;;4952371;28;208032;-74
2023/06/05 03:12:05;;;;;;;13.88;8.13;;;10.20;99.90;;;;;;5010119;28;20046;-73
2023/06/05 03:14:31;;;;;;;15.18;9.57;;;10.30;99.90;;;;;;4981492;28;212363;-73
2023/06/05 03:16:58;;;;;;;16.55;9.07;;;10.30;99.90;;;;;;5002393;28;20062;-74
2023/06/05 03:19:25;;;;;;;15.10;8.75;;;10.30;99.90;;;;;;4962935;28;208962;-73
2023/06/05 03:21:53;;;;;;;14.85;9.05;;;10.30;99.90;;;;;;5009207;28;20049;-73
2023/06/05 03:24:19;;;;;;;15.57;9.30;;;10.30;99.90;;;;;;4955218;28;206346;-73
2023/06/05 03:26:46;;;;;;;12.70;7.72;;;10.30;99.90;;;;;;5013768;28;20042;-73
2023/06/05 03:29:12;;;;;;;16.17;10.15;;;10.30;99.90;;;;;;4969956;28;209040;-74
2023/06/05 03:31:38;;;;;;;15.38;9.48;;;10.40;99.90;;;;;;5007119;28;20057;-73
2023/06/05 03:34:06;;;;;;;17.73;9.43;;;10.40;99.90;;;;;;4944806;28;211224;-72
2023/06/05 03:36:34;;;;;;;16.75;9.95;;;10.40;99.90;;;;;;5007671;28;20069;-73
2023/06/05 03:39:01;;;;;;;17.42;9.77;;;10.40;99.90;;;;;;4984340;28;213017;-72
2023/06/05 03:41:27;;;;;;;13.57;8.77;;;10.50;99.90;;;;;;4999518;28;20101;-73
2023/06/05 03:43:53;;;;;;;15.93;9.85;;;10.50;99.90;;;;;;4946008;28;216761;-73
2023/06/05 03:46:19;;;;;;;17.90;9.00;;;10.50;99.90;;;;;;5021548;28;20060;-73
2023/06/05 03:48:49;;;;;;;14.98;8.68;;;10.50;99.90;;;;;;4945989;28;206521;-72
2023/06/05 03:51:19;;;;;;;15.98;9.70;;;10.50;99.90;;;;;;4997893;28;20055;-73
2023/06/05 03:53:45;;;;;;;13.98;8.30;;;10.50;99.90;;;;;;4952085;28;211233;-73
2023/06/05 03:56:15;;;;;;;17.17;9.20;;;10.60;99.90;;;;;;5011022;28;20514;-74
2023/06/05 03:58:41;;;;;;;15.98;8.85;;;10.60;99.90;;;;;;4972663;28;204992;-73
2023/06/05 04:01:08;;;;;;;15.93;9.27;;;10.60;99.90;;;;;;5022877;28;20066;-72
2023/06/05 04:03:37;;;;;;;16.77;9.23;;;10.70;99.90;;;;;;4951463;28;206084;-73
2023/06/05 04:06:08;;;;;;;14.85;8.40;;;10.70;99.90;;;;;;5021690;28;20050;-73
2023/06/05 04:08:34;;;;;;;15.00;8.60;;;10.70;99.90;;;;;;4955079;28;213207;-73
2023/06/05 04:11:01;;;;;;;16.88;8.60;;;10.80;99.90;;;;;;4973538;28;20610;-73
2023/06/05 04:13:27;;;;;;;17.20;8.65;;;10.90;99.90;;;;;;4942537;28;211174;-73
2023/06/05 04:15:53;;;;;;;16.35;8.77;;;10.90;99.90;;;;;;5041781;28;20037;-72
2023/06/05 04:18:20;;;;;;;15.52;8.60;;;10.90;99.90;;;;;;4959125;28;213034;-72
2023/06/05 04:20:46;;;;;;;15.57;8.27;;;11.00;99.90;;;;;;5002263;28;20046;-73
2023/06/05 04:23:12;;;;;;;16.30;8.75;;;11.10;99.90;;;;;;4934017;28;212614;-74
2023/06/05 04:25:40;;;;;;;15.32;8.05;;;11.10;99.90;;;;;;5023326;28;20058;-73
2023/06/05 04:28:07;;;;;;;14.95;8.32;;;11.10;99.90;;;;;;4968735;28;209063;-73
2023/06/05 04:30:33;;;;;;;14.82;7.80;;;11.20;99.90;;;;;;4959482;28;20047;-73
2023/06/05 04:32:59;;;;;;;16.80;8.70;;;11.20;99.90;;;;;;5007065;28;20057;-73
2023/06/05 04:35:26;;;;;;;14.10;7.88;;;11.30;99.90;;;;;;4931202;28;211776;-72
2023/06/05 04:37:52;;;;;;;15.35;8.13;;;11.40;99.90;;;;;;4989471;28;20066;-72
2023/06/05 04:40:21;;;;;;;13.82;8.25;;;11.40;99.90;;;;;;4961730;28;208984;-73
2023/06/05 04:42:48;;;;;;;14.43;7.97;;;11.50;99.90;;;;;;5024093;28;20527;-72
2023/06/05 04:45:16;;;;;;;12.02;7.13;;;11.60;99.90;;;;;;4973720;28;206842;-73
2023/06/05 04:47:43;;;;;;;14.30;7.53;;;11.60;99.90;;;;;;5013020;28;20057;-73
2023/06/05 04:50:26;;;;;;;12.95;7.80;;;11.70;99.90;;;;;;4973323;28;218859;-73
2023/06/05 04:52:53;;;;;;;12.95;7.35;;;11.80;99.90;;;;;;5006865;28;20058;-73
2023/06/05 04:55:20;;;;;;;13.20;7.60;;;11.90;99.90;;;;;;4988727;28;208517;-73
2023/06/05 04:57:48;;;;;;;15.93;7.72;;;12.00;99.90;;;;;;5005417;28;20180;-73
2023/06/05 05:00:17;;;;;;;12.15;6.72;;;12.00;99.90;;;;;;4950512;28;226741;-74
2023/06/05 05:02:43;;;;;;;13.05;6.82;;;12.10;99.90;;;;;;5020188;28;20530;-74
2023/06/05 05:05:12;;;;;;;12.30;7.32;;;12.10;99.90;;;;;;4948816;28;208719;-73
2023/06/05 05:07:42;;;;;;;15.57;7.10;;;12.30;99.90;;;;;;4990077;28;20057;-74
2023/06/05 05:10:09;;;;;;;14.05;7.55;;;12.30;99.90;;;;;;4981686;28;245913;-73
2023/06/05 05:12:36;;;;;;;11.80;6.80;;;12.30;99.90;;;;;;5020822;28;20054;-73
2023/06/05 05:15:04;;;;;;;14.10;7.13;;;12.40;99.90;;;;;;4986075;28;213603;-74
2023/06/05 05:17:31;;;;;;;12.07;6.75;;;12.40;99.90;;;;;;5021733;28;20054;-74
2023/06/05 05:19:57;;;;;;;12.15;6.75;;;12.50;99.90;;;;;;4965545;28;209849;-73
2023/06/05 05:22:25;;;;;;;14.77;7.45;;;12.50;99.90;;;;;;5025420;28;20058;-73
2023/06/05 05:24:51;;;;;;;12.05;6.78;;;12.40;99.90;;;;;;4991746;28;207742;-73
2023/06/05 05:27:18;;;;;;;14.18;6.72;;;12.50;99.90;;;;;;5010947;28;20057;-73
2023/06/05 05:29:45;;;;;;;12.45;6.65;;;12.50;99.90;;;;;;4971455;28;209126;-73
2023/06/05 05:32:14;;;;;;;13.55;6.57;;;12.60;99.90;;;;;;5020048;28;20591;-74
2023/06/05 05:34:40;;;;;;;12.65;6.05;;;12.70;99.90;;;;;;4969971;28;214260;-73
2023/06/05 05:37:17;;;;;;;11.32;5.90;;;12.70;99.90;;;;;;5012469;28;20041;-73
2023/06/05 05:39:43;;;;;;;10.70;6.05;;;12.80;99.90;;;;;;4948436;28;203020;-73
2023/06/05 05:42:09;;;;;;;12.32;4.97;;;12.90;99.90;;;;;;4991258;28;20046;-73
2023/06/05 05:44:35;;;;;;;10.23;4.88;;;13.10;99.90;;;;;;4973824;28;210693;-72
2023/06/05 05:47:02;;;;;;;12.23;5.22;;;13.20;99.90;;;;;;5016686;28;20065;-74
2023/06/05 05:49:28;;;;;;;11.40;4.40;;;13.30;99.90;;;;;;4954236;28;208721;-74
2023/06/05 05:51:54;;;;;;;9.48;4.10;;;13.50;99.90;;;;;;4988672;28;20518;-74
2023/06/05 05:54:22;;;;;;;11.27;4.32;;;13.70;99.90;;;;;;4949326;28;209488;-73
2023/06/05 05:56:48;;;;;;;9.73;4.35;;;13.80;99.90;;;;;;4998450;28;20069;-73
2023/06/05 05:59:14;;;;;;;9.65;4.25;;;14.00;99.90;;;;;;4922416;28;152450;-73
2023/06/05 06:01:40;;;;;;;9.57;4.38;;;14.00;99.90;;;;;;5013819;28;20050;-72
2023/06/05 06:04:07;;;;;;;9.20;4.13;;;14.10;99.90;;;;;;4946573;28;216405;-73
2023/06/05 06:06:33;;;;;;;8.80;4.10;;;14.30;99.90;;;;;;4988198;28;20058;-73
2023/06/05 06:09:00;;;;;;;9.38;3.90;;;14.20;99.90;;;;;;4951824;28;206901;-72
2023/06/05 06:11:27;;;;;;;9.13;3.88;;;14.00;99.90;;;;;;5019536;28;20058;-73
2023/06/05 06:13:53;;;;;;;8.35;3.58;;;14.20;99.90;;;;;;4966667;28;189956;-72
2023/06/05 06:16:19;;;;;;;8.98;3.90;;;14.40;99.90;;;;;;4984522;28;20423;-74
2023/06/05 06:18:46;;;;;;;8.90;3.50;;;14.60;99.90;;;;;;4953291;28;214716;-73
2023/06/05 06:21:12;;;;;;;9.32;3.50;;;15.00;99.90;;;;;;4985184;28;20054;-74
2023/06/05 06:23:38;;;;;;;9.48;3.30;;;15.30;99.90;;;;;;4966302;28;209100;-73
2023/06/05 06:26:06;;;;;;;9.38;3.50;;;15.50;99.90;;;;;;5002433;28;20053;-71
2023/06/05 06:28:32;;;;;;;8.20;3.50;;;15.70;99.90;;;;;;4938168;28;205893;-72
2023/06/05 06:30:58;;;;;;;9.82;3.70;;;15.40;99.90;;;;;;5022446;28;20053;-72
2023/06/05 06:33:24;;;;;;;9.52;3.78;;;15.20;99.90;;;;;;4952573;28;208654;-72
2023/06/05 06:35:51;;;;;;;10.98;3.75;;;15.00;99.90;;;;;;4993082;28;20530;-73
2023/06/05 06:38:17;;;;;;;8.90;3.33;;;14.80;99.90;;;;;;4957532;28;212419;-73
2023/06/05 06:40:43;;;;;;;8.23;3.08;;;14.50;99.90;;;;;;5004851;28;20054;-73
2023/06/05 06:43:10;;;;;;;7.93;3.08;;;14.40;99.90;;;;;;4944858;28;215645;-72
2023/06/05 06:45:36;;;;;;;8.30;3.10;;;14.70;99.90;;;;;;5027754;28;20062;-73
2023/06/05 06:48:03;;;;;;;8.18;3.33;;;14.70;99.90;;;;;;4986888;28;210642;-73
2023/06/05 06:50:29;;;;;;;8.48;3.22;;;14.90;99.90;;;;;;4976450;28;163404;-73
2023/06/05 06:52:55;;;;;;;8.88;3.20;;;15.00;99.90;;;;;;5013501;28;20061;-73
2023/06/05 06:55:21;;;;;;;7.72;3.03;;;15.30;99.90;;;;;;4966240;28;223126;-73
2023/06/05 06:57:47;;;;;;;8.18;3.22;;;15.30;99.90;;;;;;5027254;28;20046;-72
2023/06/05 07:00:14;;;;;;;8.05;3.20;;;15.40;99.90;;;;;;4956459;28;228627;-72
2023/06/05 07:02:40;;;;;;;8.38;3.75;;;15.60;99.90;;;;;;5025028;28;20057;-71
2023/06/05 07:05:07;;;;;;;8.65;3.40;;;15.90;99.90;;;;;;4967613;28;208392;-72
2023/06/05 07:07:33;;;;;;;9.20;3.53;;;16.20;99.90;;;;;;4989519;28;20042;-73
2023/06/05 07:09:59;;;;;;;10.95;3.33;;;16.50;99.90;;;;;;4948187;28;207152;-72
2023/06/05 07:12:25;;;;;;;8.40;3.15;;;16.50;99.90;;;;;;4986679;28;20046;-72
2023/06/05 07:14:51;;;;;;;10.82;3.55;;;16.60;99.90;;;;;;4969340;28;205978;-73
2023/06/05 07:17:17;;;;;;;8.40;3.17;;;16.60;99.90;;;;;;5012397;28;20046;-73
2023/06/05 07:19:43;;;;;;;9.25;3.05;;;16.70;99.90;;;;;;4951146;28;244409;-72
2023/06/05 07:22:10;;;;;;;8.23;3.03;;;16.80;99.90;;;;;;5010323;28;20054;-72
2023/06/05 07:24:38;;;;;;;8.32;3.10;;;17.10;99.90;;;;;;4958336;28;225258;-72
2023/06/05 07:27:05;;;;;;;8.38;2.90;;;17.40;99.90;;;;;;4975249;28;20054;-71
2023/06/05 07:29:31;;;;;;;8.27;3.10;;;17.50;99.90;;;;;;4957794;28;208452;-73
2023/06/05 07:31:58;;;;;;;7.65;2.75;;;17.50;99.90;;;;;;4979761;28;20050;-72
2023/06/05 07:34:26;;;;;;;8.98;2.80;;;17.70;99.90;;;;;;4952313;28;210632;-72
2023/06/05 07:36:53;;;;;;;9.05;3.03;;;17.70;99.70;;;;;;5012353;28;20049;-72
2023/06/05 07:39:20;;;;;;;9.05;2.80;;;17.70;99.30;;;;;;4962031;28;209744;-72
2023/06/05 07:41:46;;;;;;;8.40;2.85;;;17.50;99.70;;;;;;4989114;28;20053;-72
2023/06/05 07:44:18;;;;;;;7.13;2.75;;;17.40;99.40;;;;;;4954407;28;206895;-72
2023/06/05 07:46:45;;;;;;;9.60;3.17;;;17.40;99.50;;;;;;5003145;28;20054;-73
2023/06/05 07:49:11;;;;;;;7.82;2.70;;;17.70;99.50;;;;;;4949930;28;207376;-72
2023/06/05 07:51:37;;;;;;;9.07;3.05;;;18.10;98.90;;;;;;5014384;28;20031;-72
2023/06/05 07:54:08;;;;;;;9.52;2.70;;;18.40;98.80;;;;;;4959387;28;209927;-72
2023/06/05 07:56:34;;;;;;;;;;;18.40;98.50;;;;;;4980058;28;20407;-73
2023/06/05 07:59:02;;;;;;;9.70;2.97;;;18.40;97.90;;;;;;4937971;28;209800;-72
2023/06/05 08:01:36;;;;;;;6.93;2.60;;;18.60;98.70;;;;;;4985878;28;20053;-73
2023/06/05 08:04:07;;;;;;;6.75;2.80;;;19.10;98.40;;;;;;4951736;28;236175;-73
2023/06/05 08:06:37;;;;;;;7.97;2.72;;;19.60;98.20;;;;;;4984370;28;20125;-73
2023/06/05 08:09:09;;;;;;;8.10;2.55;;;20.10;98.20;;;;;;4946730;28;230713;-73
2023/06/05 08:11:37;;;;;;;7.10;2.47;;;20.60;97.80;;;;;;4989740;28;20050;-73
2023/06/05 08:14:05;;;;;;;8.18;2.40;;;20.90;97.50;;;;;;4967903;28;206830;-73
2023/06/05 08:16:33;;;;;;;8.82;2.80;;;21.30;96.80;;;;;;5006837;28;20053;-74
2023/06/05 08:18:59;;;;;;;8.13;2.30;;;21.30;96.60;;;;;;4961110;28;169664;-74
2023/06/05 08:21:25;;;;;;;7.72;2.38;;;21.50;96.70;;;;;;4999515;28;20057;-74
2023/06/05 08:23:52;;;;;;;7.32;2.70;;;21.80;96.00;;;;;;4943722;28;221758;-73
2023/06/05 08:26:21;;;;;;;7.35;2.50;;;21.70;95.70;;;;;;5001119;28;20042;-73
2023/06/05 08:28:49;;;;;;;6.83;2.20;;;21.90;95.30;;;;;;4963185;28;193294;-72
2023/06/05 08:31:15;;;;;;;6.47;2.10;;;22.20;94.60;;;;;;4986501;28;20050;-74
2023/06/05 08:33:42;;;;;;;6.85;2.60;;;22.20;95.00;;;;;;4939425;28;220783;-73
2023/06/05 08:36:08;;;;;;;6.90;2.00;;;22.30;94.60;;;;;;4998028;28;20054;-73
2023/06/05 08:38:35;;;;;;;7.10;2.38;;;22.50;94.50;;;;;;4945621;28;206486;-73
2023/06/05 08:41:10;;;;;;;6.82;2.38;;;22.80;94.10;;;;;;5010801;28;20527;-73
2023/06/05 08:43:44;;;;;;;9.80;2.63;;;22.30;92.50;;;;;;4959357;28;207022;-73
2023/06/05 08:46:12;;;;;;;7.85;2.40;;;22.30;93.70;;;;;;5024399;28;20042;-73
2023/06/05 08:48:50;;;;;;;9.32;2.90;;;22.30;93.70;;;;;;4964619;28;208425;-73
2023/06/05 08:51:18;;;;;;;7.18;2.30;;;22.70;93.40;;;;;;5033802;28;20046;-73
2023/06/05 08:54:12;;;;;;;6.95;2.22;;;22.50;93.40;;;;;;4962388;28;210136;-72
2023/06/05 08:56:39;;;;;;;7.75;2.58;;;23.20;92.00;;;;;;5014378;28;20054;-72
2023/06/05 08:59:06;;;;;;;7.10;2.10;;;23.50;92.40;;;;;;4954970;28;214127;-73
2023/06/05 09:01:32;;;;;;;7.70;2.70;;;23.70;92.70;;;;;;5015574;28;20056;-73
2023/06/05 09:03:58;;;;;;;8.30;2.67;;;23.90;92.20;;;;;;4971463;28;208174;-72
2023/06/05 09:06:24;;;;;;;8.27;2.70;;;23.90;91.70;;;;;;5002222;28;20060;-73
2023/06/05 09:08:51;;;;;;;7.82;2.70;;;23.90;91.20;;;;;;4990655;28;235551;-72
2023/06/05 09:11:31;;;;;;;7.57;2.33;;;23.80;90.60;;;;;;5025629;28;20061;-73
2023/06/05 09:13:59;;;;;;;6.70;2.30;;;23.60;90.90;;;;;;4957360;28;206369;-72
2023/06/05 09:16:43;;;;;;;8.15;2.50;;;24.00;90.80;;;;;;5018913;28;20050;-73
2023/06/05 09:19:11;;;;;;;8.40;2.33;;;24.20;90.60;;;;;;4973164;28;206664;-73
2023/06/05 09:21:37;;;;;;;8.82;2.65;;;24.50;90.50;;;;;;5028448;28;20578;-73
2023/06/05 09:24:11;;;;;;;7.35;2.40;;;24.60;90.20;;;;;;4963687;28;209153;-73
2023/06/05 09:26:46;;;;;;;7.25;2.35;;;24.60;89.80;;;;;;5004311;28;20054;-74
2023/06/05 09:29:13;;;;;;;7.18;2.28;;;24.90;89.00;;;;;;4980771;28;206371;-73
2023/06/05 09:31:42;;;;;;;6.75;2.53;;;25.40;88.80;;;;;;5042810;28;20699;-73
2023/06/05 09:34:08;;;;;;;8.75;2.50;;;25.80;87.10;;;;;;4969717;28;206397;-73
2023/06/05 09:36:44;;;;;;;8.38;2.38;;;25.70;88.10;;;;;;5011672;28;20068;-73
2023/06/05 09:39:16;;;;;;;8.23;2.50;;;25.80;86.60;;;;;;4991786;28;207092;-74
2023/06/05 09:41:51;;;;;;;7.00;2.22;;;26.00;84.10;;;;;;4999822;28;20054;-73
2023/06/05 09:44:18;;;;;;;7.80;2.50;;;25.80;85.80;;;;;;4977250;28;188185;-73
2023/06/05 09:47:05;;;;;;;6.93;2.25;;;25.80;86.00;;;;;;5010331;28;20050;-73
2023/06/05 09:49:45;;;;;;;8.48;2.47;;;26.10;84.40;;;;;;4978375;28;206259;-74
2023/06/05 09:52:12;;;;;;;8.18;2.42;;;26.10;84.90;;;;;;5024375;28;20072;-73
2023/06/05 09:54:41;;;;;;;7.75;2.10;;;26.50;84.10;;;;;;4970213;28;208586;-73
2023/06/05 09:57:09;;;;;;;7.47;2.47;;;26.30;84.80;;;;;;4980765;28;20058;-74
2023/06/05 09:59:45;;;;;;;9.45;2.00;;;26.60;83.80;;;;;;4930141;28;254243;-74
2023/06/05 10:02:15;;;;;;;7.72;2.30;;;27.10;81.70;;;;;;5009901;28;20076;-74
2023/06/05 10:04:46;;;;;;;7.78;2.40;;;27.10;82.10;;;;;;4979453;28;216052;-74
2023/06/05 10:07:13;;;;;;;6.82;2.05;;;27.00;82.00;;;;;;4994482;28;20061;-73
2023/06/05 10:09:41;;;;;;;6.72;2.25;;;27.20;82.30;;;;;;4932150;28;230821;-73
2023/06/05 10:12:08;;;;;;;8.18;2.85;;;26.90;81.00;;;;;;4989636;28;20058;-73
2023/06/05 10:14:41;;;;;;;6.95;2.53;;;26.80;81.10;;;;;;4934693;28;206094;-74
2023/06/05 10:17:07;;;;;;;8.30;2.80;;;27.10;80.50;;;;;;4990414;28;20551;-74
2023/06/05 10:19:34;;;;;;;9.90;3.03;;;27.10;80.30;;;;;;4948114;28;260083;-74
2023/06/05 10:22:01;;;;;;;8.40;2.38;;;27.20;81.20;;;;;;4985383;28;20519;-75
2023/06/05 10:24:33;;;;;;;8.00;2.95;;;27.80;81.00;;;;;;4967394;28;173381;-73
2023/06/05 10:27:12;;;;;;;9.00;3.00;;;27.60;79.30;;;;;;5004949;28;20065;-73
2023/06/05 10:30:02;;;;;;;8.23;2.83;;;27.30;81.50;;;;;;4993459;28;203171;-73
2023/06/05 10:32:28;;;;;;;7.93;2.75;;;27.20;79.80;;;;;;4999878;28;20514;-75
2023/06/05 10:35:22;;;;;;;8.95;2.70;;;27.00;81.10;;;;;;4984909;28;211834;-75
2023/06/05 10:38:21;;;;;;;9.88;2.40;;;27.10;80.20;;;;;;5009334;28;20058;-75
2023/06/05 10:40:53;;;;;;;8.65;3.30;;;27.10;79.70;;;;;;4929852;28;206658;-74
2023/06/05 10:43:32;;;;;;;7.68;2.95;;;26.10;80.20;;;;;;4943314;28;209014;-74
2023/06/05 10:46:00;;;;;;;7.25;2.83;;;26.60;80.00;;;;;;5018529;28;20054;-73
2023/06/05 10:49:05;;;;;;;10.50;3.15;;;27.00;80.30;;;;;;4959005;28;208359;-71
2023/06/05 10:51:39;;;;;;;8.48;2.92;;;27.20;78.40;;;;;;5006943;28;20053;-74
2023/06/05 10:54:07;;;;;;;7.15;3.05;;;27.20;80.50;;;;;;4959713;28;211508;-74
2023/06/05 10:56:53;;;;;;;8.20;3.05;;;27.40;80.60;;;;;;5007562;28;20061;-74
2023/06/05 10:59:20;;;;;;;7.68;2.90;;;27.50;79.70;;;;;;4952642;28;217013;-73
2023/06/05 11:02:16;;;;;;;7.95;3.10;;;27.40;79.60;;;;;;4985251;28;20054;-74
2023/06/05 11:04:46;;;;;;;8.93;3.10;;;27.40;77.80;;;;;;4951329;28;211743;-73
2023/06/05 11:07:16;;;;;;;7.55;3.10;;;27.60;79.90;;;;;;4992978;28;20419;-73
2023/06/05 11:10:07;;;;;;;7.70;3.22;;;27.50;78.40;;;;;;4964611;28;208315;-74
2023/06/05 11:12:39;;;;;;;7.60;3.38;;;27.80;79.00;;;;;;5011206;28;20069;-74
2023/06/05 11:15:28;;;;;;;7.63;3.25;;;27.70;79.10;;;;;;4965201;28;212656;-73
2023/06/05 11:17:55;;;;;;;7.57;3.03;;;27.30;76.70;;;;;;5012049;28;20045;-74
2023/06/05 11:20:24;;;;;;;7.80;3.10;;;27.40;78.90;;;;;;4953627;28;150031;-74
2023/06/05 11:22:53;;;;;;;7.80;3.10;;;27.40;77.60;;;;;;5023521;28;20042;-74
2023/06/05 11:25:24;;;;;;;7.97;2.65;;;27.70;77.80;;;;;;4943526;28;128705;-74
2023/06/05 11:27:56;;;;;;;9.52;2.72;;;27.50;78.60;;;;;;4993360;28;20061;-75
2023/06/05 11:30:26;;;;;;;8.13;2.70;;;27.10;76.60;;;;;;4934570;28;206957;-74
2023/06/05 11:32:57;;;;;;;7.05;2.42;;;27.40;78.20;;;;;;4996626;28;20499;-75
2023/06/05 11:35:28;;;;;;;8.15;2.95;;;27.40;79.20;;;;;;4979985;28;237580;-74
2023/06/05 11:38:10;;;;;;;;;;;27.70;78.30;;;;;;5024539;28;20531;-74
2023/06/05 11:40:37;;;;;;;9.23;2.92;;;27.60;77.30;;;;;;4968051;28;39495;-75
2023/06/05 11:43:05;;;;;;;7.32;2.70;;;27.60;78.10;;;;;;5009076;28;213487;-73
2023/06/05 11:45:34;;;;;;;11.18;3.10;;;27.40;77.50;;;;;;5001113;28;206095;-73
2023/06/05 11:48:10;;;;;;;7.72;2.88;;;27.50;77.10;;;;;;5042932;28;20049;-75
2023/06/05 11:50:51;;;;;;;7.20;2.50;;;27.60;77.10;;;;;;4963927;28;212038;-75
2023/06/05 11:53:18;;;;;;;9.27;2.78;;;27.60;77.80;;;;;;4936434;28;209504;-75
2023/06/05 11:58:30;;;;;;;8.05;2.50;;;27.80;78.60;;;;;;4923466;28;209058;-75
2023/06/05 12:01:14;;;;;;;8.20;2.70;;;28.20;77.50;;;;;;5001434;28;20054;-75
2023/06/05 12:03:42;;;;;;;8.35;2.58;;;28.00;77.80;;;;;;4967875;28;208606;-74
2023/06/05 12:06:08;;;;;;;9.73;2.40;;;27.40;77.00;;;;;;4991713;28;20057;-75
2023/06/05 12:08:35;;;;;;;7.80;2.58;;;28.00;78.60;;;;;;4948158;28;149972;-74
2023/06/05 12:11:26;;;;;;;7.28;2.30;;;27.40;78.00;;;;;;5019165;28;20057;-74
2023/06/05 12:13:54;;;;;;;8.05;2.30;;;27.30;77.20;;;;;;4960298;28;206212;-74
2023/06/05 12:16:32;;;;;;;7.53;2.38;;;27.30;78.20;;;;;;4999998;28;20073;-74
2023/06/05 12:18:58;;;;;;;9.50;2.42;;;27.20;77.50;;;;;;4976534;28;186320;-73
2023/06/05 12:21:27;;;;;;;7.20;2.20;;;26.90;77.80;;;;;;4987405;28;20054;-73
2023/06/05 12:24:03;;;;;;;9.65;2.70;;;27.20;78.30;;;;;;4957518;28;235256;-73
2023/06/05 12:26:30;;;;;;;7.40;2.63;;;27.40;77.10;;;;;;5011065;28;20054;-74
2023/06/05 12:29:05;;;;;;;6.93;2.30;;;27.10;77.20;;;;;;4960359;28;209842;-75
2023/06/05 12:31:35;;;;;;;6.65;2.00;;;26.80;78.00;;;;;;5016070;28;20050;-74
2023/06/05 12:34:04;;;;;;;6.70;2.28;;;26.60;78.20;;;;;;4998787;28;181836;-75
2023/06/05 12:36:31;;;;;;;7.03;2.10;;;26.60;77.70;;;;;;5008736;28;20388;-75
2023/06/05 12:39:04;;;;;;;8.18;2.50;;;27.00;78.50;;;;;;4949241;28;207401;-74
2023/06/05 12:41:30;;;;;;;7.07;2.30;;;26.90;78.10;;;;;;4998294;28;20058;-74
2023/06/05 12:44:04;;;;;;;9.07;2.75;;;26.70;78.40;;;;;;4944485;28;209596;-74
2023/06/05 12:46:31;;;;;;;7.10;2.15;;;26.50;77.70;;;;;;4996505;28;20607;-74
2023/06/05 12:49:01;;;;;;;10.48;2.00;;;26.80;78.40;;;;;;4976106;28;209105;-75
2023/06/05 12:51:28;;;;;;;7.60;2.50;;;27.20;78.70;;;;;;4994540;28;20069;-74